sensor_id;sensor_type;location;lat;lon;timestamp;pressure;altitude;pressure_sealevel;temperature
77789;BMP280;70537;44.384;0.512;2024-03-02T07:03:30;99006.97;;;8.60
77789;BMP280;70537;44.384;0.512;2024-03-02T07:05:55;99027.06;;;8.64
77789;BMP280;70537;44.384;0.512;2024-03-02T07:08:21;99013.81;;;8.61
77789;BMP280;70537;44.384;0.512;2024-03-02T07:10:46;99033.47;;;8.61
77789;BMP280;70537;44.384;0.512;2024-03-02T07:13:12;99049.69;;;8.67
77789;BMP280;70537;44.384;0.512;2024-03-02T07:15:38;99027.53;;;8.68
77789;BMP280;70537;44.384;0.512;2024-03-02T07:18:22;99031.63;;;8.75
77789;BMP280;70537;44.384;0.512;2024-03-02T07:20:48;99042.94;;;8.79
77789;BMP280;70537;44.384;0.512;2024-03-02T07:23:15;99049.75;;;8.86
77789;BMP280;70537;44.384;0.512;2024-03-02T07:25:40;99052.19;;;8.89
77789;BMP280;70537;44.384;0.512;2024-03-02T07:28:06;99056.34;;;8.90
77789;BMP280;70537;44.384;0.512;2024-03-02T07:30:32;99050.22;;;8.90
77789;BMP280;70537;44.384;0.512;2024-03-02T07:32:59;99039.16;;;8.88
77789;BMP280;70537;44.384;0.512;2024-03-02T07:35:24;99041.13;;;8.87
77789;BMP280;70537;44.384;0.512;2024-03-02T07:37:53;99039.69;;;8.86
77789;BMP280;70537;44.384;0.512;2024-03-02T07:40:19;99054.13;;;8.95
77789;BMP280;70537;44.384;0.512;2024-03-02T07:42:45;99055.06;;;8.97
77789;BMP280;70537;44.384;0.512;2024-03-02T07:45:10;99060.63;;;9.05
77789;BMP280;70537;44.384;0.512;2024-03-02T07:47:36;99079.25;;;9.14
77789;BMP280;70537;44.384;0.512;2024-03-02T07:50:02;99079.19;;;9.20
77789;BMP280;70537;44.384;0.512;2024-03-02T07:52:28;99097.09;;;9.28
77789;BMP280;70537;44.384;0.512;2024-03-02T07:54:54;99097.25;;;9.36
77789;BMP280;70537;44.384;0.512;2024-03-02T07:57:20;99114.16;;;9.42
77789;BMP280;70537;44.384;0.512;2024-03-02T07:59:46;99117.84;;;9.45
77789;BMP280;70537;44.384;0.512;2024-03-02T08:02:12;99127.88;;;9.50
77789;BMP280;70537;44.384;0.512;2024-03-02T08:04:37;99135.44;;;9.57
77789;BMP280;70537;44.384;0.512;2024-03-02T08:07:03;99139.63;;;9.58
77789;BMP280;70537;44.384;0.512;2024-03-02T08:09:29;99150.91;;;9.62
77789;BMP280;70537;44.384;0.512;2024-03-02T08:11:55;99144.50;;;9.59
77789;BMP280;70537;44.384;0.512;2024-03-02T08:14:22;99136.38;;;9.59
77789;BMP280;70537;44.384;0.512;2024-03-02T08:16:47;99130.25;;;9.59
77789;BMP280;70537;44.384;0.512;2024-03-02T08:19:13;99135.41;;;9.63
77789;BMP280;70537;44.384;0.512;2024-03-02T08:21:38;99117.41;;;9.65
77789;BMP280;70537;44.384;0.512;2024-03-02T08:24:04;99129.88;;;9.68
77789;BMP280;70537;44.384;0.512;2024-03-02T08:26:30;99113.44;;;9.66
77789;BMP280;70537;44.384;0.512;2024-03-02T08:28:57;99113.13;;;9.70
77789;BMP280;70537;44.384;0.512;2024-03-02T08:31:23;99116.81;;;9.72
77789;BMP280;70537;44.384;0.512;2024-03-02T08:33:48;99112.41;;;9.69
77789;BMP280;70537;44.384;0.512;2024-03-02T08:36:14;99118.28;;;9.73
77789;BMP280;70537;44.384;0.512;2024-03-02T08:38:40;99121.44;;;9.77
77789;BMP280;70537;44.384;0.512;2024-03-02T08:41:06;99114.03;;;9.78
77789;BMP280;70537;44.384;0.512;2024-03-02T08:43:32;99112.81;;;9.79
77789;BMP280;70537;44.384;0.512;2024-03-02T08:45:58;99108.56;;;9.84
77789;BMP280;70537;44.384;0.512;2024-03-02T08:48:24;99116.16;;;9.85
77789;BMP280;70537;44.384;0.512;2024-03-02T08:50:49;99119.41;;;9.84
77789;BMP280;70537;44.384;0.512;2024-03-02T08:53:15;99105.88;;;9.84
77789;BMP280;70537;44.384;0.512;2024-03-02T08:55:48;99095.53;;;9.82
77789;BMP280;70537;44.384;0.512;2024-03-02T08:58:14;99087.31;;;9.88
77789;BMP280;70537;44.384;0.512;2024-03-02T09:00:40;99082.41;;;9.86
77789;BMP280;70537;44.384;0.512;2024-03-02T09:03:05;99082.22;;;9.84
77789;BMP280;70537;44.384;0.512;2024-03-02T09:05:31;99073.78;;;9.88
77789;BMP280;70537;44.384;0.512;2024-03-02T09:07:56;99084.00;;;9.95
77789;BMP280;70537;44.384;0.512;2024-03-02T09:10:22;99087.91;;;9.99
77789;BMP280;70537;44.384;0.512;2024-03-02T09:12:47;99092.09;;;10.00
77789;BMP280;70537;44.384;0.512;2024-03-02T09:15:13;99091.50;;;10.08
77789;BMP280;70537;44.384;0.512;2024-03-02T09:17:38;99090.03;;;10.07
77789;BMP280;70537;44.384;0.512;2024-03-02T09:20:05;99093.19;;;10.11
77789;BMP280;70537;44.384;0.512;2024-03-02T09:22:30;99092.22;;;10.08
77789;BMP280;70537;44.384;0.512;2024-03-02T09:24:57;99098.81;;;10.13
77789;BMP280;70537;44.384;0.512;2024-03-02T09:27:23;99106.72;;;10.11
77789;BMP280;70537;44.384;0.512;2024-03-02T09:29:48;99103.94;;;10.16
77789;BMP280;70537;44.384;0.512;2024-03-02T09:32:14;99102.72;;;10.17
77789;BMP280;70537;44.384;0.512;2024-03-02T09:34:41;99091.88;;;10.17
77789;BMP280;70537;44.384;0.512;2024-03-02T09:37:07;99088.41;;;10.17
77789;BMP280;70537;44.384;0.512;2024-03-02T09:39:33;99085.91;;;10.19
77789;BMP280;70537;44.384;0.512;2024-03-02T09:42:01;99079.03;;;10.18
77789;BMP280;70537;44.384;0.512;2024-03-02T09:44:29;99075.81;;;10.19
77789;BMP280;70537;44.384;0.512;2024-03-02T09:46:55;99065.19;;;10.21
77789;BMP280;70537;44.384;0.512;2024-03-02T09:49:21;99055.72;;;10.28
77789;BMP280;70537;44.384;0.512;2024-03-02T09:51:48;99045.41;;;10.26
77789;BMP280;70537;44.384;0.512;2024-03-02T09:54:15;99035.91;;;10.33
77789;BMP280;70537;44.384;0.512;2024-03-02T09:56:40;99028.66;;;10.41
77789;BMP280;70537;44.384;0.512;2024-03-02T09:59:06;99034.63;;;10.53
77789;BMP280;70537;44.384;0.512;2024-03-02T10:01:32;99031.31;;;10.60
77789;BMP280;70537;44.384;0.512;2024-03-02T10:04:00;99028.09;;;10.75
77789;BMP280;70537;44.384;0.512;2024-03-02T10:06:28;99045.63;;;10.74
77789;BMP280;70537;44.384;0.512;2024-03-02T10:08:54;99045.44;;;10.85
77789;BMP280;70537;44.384;0.512;2024-03-02T10:11:34;99052.00;;;11.03
77789;BMP280;70537;44.384;0.512;2024-03-02T10:14:12;99053.38;;;11.23
77789;BMP280;70537;44.384;0.512;2024-03-02T10:16:42;99050.97;;;11.33
77789;BMP280;70537;44.384;0.512;2024-03-02T10:19:17;99061.72;;;11.38
77789;BMP280;70537;44.384;0.512;2024-03-02T10:21:54;99062.34;;;11.45
77789;BMP280;70537;44.384;0.512;2024-03-02T10:24:21;99066.50;;;11.59
77789;BMP280;70537;44.384;0.512;2024-03-02T10:26:47;99059.91;;;11.68
77789;BMP280;70537;44.384;0.512;2024-03-02T10:29:13;99058.31;;;12.06
77789;BMP280;70537;44.384;0.512;2024-03-02T10:31:39;99054.69;;;12.46
77789;BMP280;70537;44.384;0.512;2024-03-02T10:34:06;99049.94;;;12.67
77789;BMP280;70537;44.384;0.512;2024-03-02T10:36:35;99050.16;;;12.98
77789;BMP280;70537;44.384;0.512;2024-03-02T10:39:03;99058.66;;;13.31
77789;BMP280;70537;44.384;0.512;2024-03-02T10:41:32;99057.38;;;13.24
77789;BMP280;70537;44.384;0.512;2024-03-02T10:43:59;99050.19;;;13.50
77789;BMP280;70537;44.384;0.512;2024-03-02T10:46:28;99075.91;;;13.77
77789;BMP280;70537;44.384;0.512;2024-03-02T10:48:58;99062.16;;;13.90
77789;BMP280;70537;44.384;0.512;2024-03-02T10:51:28;99050.97;;;13.65
77789;BMP280;70537;44.384;0.512;2024-03-02T10:53:57;99070.28;;;13.83
77789;BMP280;70537;44.384;0.512;2024-03-02T10:56:43;99056.09;;;13.77
77789;BMP280;70537;44.384;0.512;2024-03-02T10:59:37;99060.91;;;14.37
77789;BMP280;70537;44.384;0.512;2024-03-02T11:02:08;99067.56;;;14.90
77789;BMP280;70537;44.384;0.512;2024-03-02T11:04:39;99098.47;;;15.16
77789;BMP280;70537;44.384;0.512;2024-03-02T11:07:10;99093.59;;;15.47
77789;BMP280;70537;44.384;0.512;2024-03-02T11:09:55;99090.28;;;15.48
77789;BMP280;70537;44.384;0.512;2024-03-02T11:12:36;99102.19;;;15.76
77789;BMP280;70537;44.384;0.512;2024-03-02T11:15:09;99104.00;;;15.81
77789;BMP280;70537;44.384;0.512;2024-03-02T11:17:36;99122.09;;;15.69
77789;BMP280;70537;44.384;0.512;2024-03-02T11:20:03;99106.38;;;15.85
77789;BMP280;70537;44.384;0.512;2024-03-02T11:22:29;99106.25;;;15.67
77789;BMP280;70537;44.384;0.512;2024-03-02T11:24:55;99135.56;;;16.07
77789;BMP280;70537;44.384;0.512;2024-03-02T11:28:00;99103.59;;;16.35
77789;BMP280;70537;44.384;0.512;2024-03-02T11:33:01;99136.81;;;17.16
77789;BMP280;70537;44.384;0.512;2024-03-02T11:35:37;99170.16;;;17.39
77789;BMP280;70537;44.384;0.512;2024-03-02T11:38:02;99136.22;;;17.35
77789;BMP280;70537;44.384;0.512;2024-03-02T11:40:29;99170.28;;;16.72
77789;BMP280;70537;44.384;0.512;2024-03-02T11:42:55;99169.53;;;16.29
77789;BMP280;70537;44.384;0.512;2024-03-02T11:45:24;99153.44;;;15.75
77789;BMP280;70537;44.384;0.512;2024-03-02T11:47:50;99119.63;;;15.48
77789;BMP280;70537;44.384;0.512;2024-03-02T11:50:29;99145.13;;;15.58
77789;BMP280;70537;44.384;0.512;2024-03-02T11:52:55;99109.03;;;15.60
77789;BMP280;70537;44.384;0.512;2024-03-02T11:55:21;99111.25;;;15.53
77789;BMP280;70537;44.384;0.512;2024-03-02T11:57:48;99126.78;;;15.35
77789;BMP280;70537;44.384;0.512;2024-03-02T12:00:21;99122.50;;;15.17
77789;BMP280;70537;44.384;0.512;2024-03-02T12:02:59;99082.19;;;15.33
77789;BMP280;70537;44.384;0.512;2024-03-02T12:05:26;99095.31;;;15.27
77789;BMP280;70537;44.384;0.512;2024-03-02T12:08:12;99085.72;;;15.10
77789;BMP280;70537;44.384;0.512;2024-03-02T12:10:38;99090.47;;;14.95
77789;BMP280;70537;44.384;0.512;2024-03-02T12:13:05;99077.97;;;14.53
77789;BMP280;70537;44.384;0.512;2024-03-02T12:15:38;99078.16;;;14.32
77789;BMP280;70537;44.384;0.512;2024-03-02T12:18:04;99060.34;;;14.54
77789;BMP280;70537;44.384;0.512;2024-03-02T12:20:32;99059.59;;;14.69
77789;BMP280;70537;44.384;0.512;2024-03-02T12:22:58;99040.66;;;14.71
77789;BMP280;70537;44.384;0.512;2024-03-02T12:25:25;99042.59;;;14.94
77789;BMP280;70537;44.384;0.512;2024-03-02T12:27:53;99046.81;;;15.35
77789;BMP280;70537;44.384;0.512;2024-03-02T12:30:20;99044.06;;;15.35
77789;BMP280;70537;44.384;0.512;2024-03-02T12:32:46;99040.63;;;15.34
77789;BMP280;70537;44.384;0.512;2024-03-02T12:35:11;99053.34;;;15.40
77789;BMP280;70537;44.384;0.512;2024-03-02T12:37:46;99036.84;;;15.22
77789;BMP280;70537;44.384;0.512;2024-03-02T12:40:13;99044.22;;;15.04
77789;BMP280;70537;44.384;0.512;2024-03-02T12:42:39;99054.81;;;14.93
77789;BMP280;70537;44.384;0.512;2024-03-02T12:45:06;99047.94;;;14.61
77789;BMP280;70537;44.384;0.512;2024-03-02T12:47:32;99036.88;;;14.44
77789;BMP280;70537;44.384;0.512;2024-03-02T12:49:58;99027.22;;;14.43
77789;BMP280;70537;44.384;0.512;2024-03-02T12:52:24;99026.28;;;14.55
77789;BMP280;70537;44.384;0.512;2024-03-02T12:54:49;99025.38;;;14.53
77789;BMP280;70537;44.384;0.512;2024-03-02T12:57:19;99037.34;;;14.88
77789;BMP280;70537;44.384;0.512;2024-03-02T12:59:47;99053.41;;;14.61
77789;BMP280;70537;44.384;0.512;2024-03-02T13:02:19;99023.03;;;14.57
77789;BMP280;70537;44.384;0.512;2024-03-02T13:04:52;99027.19;;;14.58
77789;BMP280;70537;44.384;0.512;2024-03-02T13:07:19;99043.25;;;14.31
77789;BMP280;70537;44.384;0.512;2024-03-02T13:09:46;99038.50;;;14.24
77789;BMP280;70537;44.384;0.512;2024-03-02T13:12:11;99030.34;;;14.08
77789;BMP280;70537;44.384;0.512;2024-03-02T13:14:37;99031.22;;;14.11
77789;BMP280;70537;44.384;0.512;2024-03-02T13:17:02;99015.97;;;14.15
77789;BMP280;70537;44.384;0.512;2024-03-02T13:19:30;99023.97;;;14.06
77789;BMP280;70537;44.384;0.512;2024-03-02T13:21:56;98999.75;;;13.94
77789;BMP280;70537;44.384;0.512;2024-03-02T13:24:22;98993.03;;;14.19
77789;BMP280;70537;44.384;0.512;2024-03-02T13:26:51;98979.38;;;14.26
77789;BMP280;70537;44.384;0.512;2024-03-02T13:29:21;98969.19;;;14.34
77789;BMP280;70537;44.384;0.512;2024-03-02T13:31:46;98973.34;;;14.51
77789;BMP280;70537;44.384;0.512;2024-03-02T13:34:12;98982.06;;;14.57
77789;BMP280;70537;44.384;0.512;2024-03-02T13:36:38;98975.91;;;14.56
77789;BMP280;70537;44.384;0.512;2024-03-02T13:39:04;98969.94;;;14.35
77789;BMP280;70537;44.384;0.512;2024-03-02T13:41:32;98979.41;;;14.34
77789;BMP280;70537;44.384;0.512;2024-03-02T13:43:57;98970.31;;;14.16
77789;BMP280;70537;44.384;0.512;2024-03-02T13:46:26;98960.69;;;14.15
77789;BMP280;70537;44.384;0.512;2024-03-02T13:48:52;98966.84;;;14.00
77789;BMP280;70537;44.384;0.512;2024-03-02T13:51:17;98976.13;;;13.97
77789;BMP280;70537;44.384;0.512;2024-03-02T13:53:43;98970.13;;;13.91
77789;BMP280;70537;44.384;0.512;2024-03-02T13:56:08;99007.94;;;13.94
77789;BMP280;70537;44.384;0.512;2024-03-02T13:58:34;98991.56;;;13.79
77789;BMP280;70537;44.384;0.512;2024-03-02T14:01:00;98979.56;;;13.75
77789;BMP280;70537;44.384;0.512;2024-03-02T14:03:26;98992.09;;;13.62
77789;BMP280;70537;44.384;0.512;2024-03-02T14:05:53;98970.97;;;13.40
77789;BMP280;70537;44.384;0.512;2024-03-02T14:08:19;98969.28;;;13.29
77789;BMP280;70537;44.384;0.512;2024-03-02T14:10:44;98975.06;;;13.18
77789;BMP280;70537;44.384;0.512;2024-03-02T14:13:10;98975.16;;;12.97
77789;BMP280;70537;44.384;0.512;2024-03-02T14:15:35;98981.50;;;12.99
77789;BMP280;70537;44.384;0.512;2024-03-02T14:18:05;98978.34;;;12.80
77789;BMP280;70537;44.384;0.512;2024-03-02T14:20:31;98985.91;;;12.66
77789;BMP280;70537;44.384;0.512;2024-03-02T14:22:59;98997.75;;;12.48
77789;BMP280;70537;44.384;0.512;2024-03-02T14:25:26;98991.84;;;12.36
77789;BMP280;70537;44.384;0.512;2024-03-02T14:27:51;98983.91;;;12.17
77789;BMP280;70537;44.384;0.512;2024-03-02T14:30:17;98982.66;;;11.97
77789;BMP280;70537;44.384;0.512;2024-03-02T14:32:42;98985.28;;;11.90
77789;BMP280;70537;44.384;0.512;2024-03-02T14:35:08;98996.22;;;11.76
77789;BMP280;70537;44.384;0.512;2024-03-02T14:37:36;98981.84;;;11.68
77789;BMP280;70537;44.384;0.512;2024-03-02T14:40:02;98964.00;;;11.59
77789;BMP280;70537;44.384;0.512;2024-03-02T14:42:30;98934.78;;;11.52
77789;BMP280;70537;44.384;0.512;2024-03-02T14:44:56;98923.50;;;11.48
77789;BMP280;70537;44.384;0.512;2024-03-02T14:47:22;98912.22;;;11.44
77789;BMP280;70537;44.384;0.512;2024-03-02T14:49:48;98894.44;;;11.43
77789;BMP280;70537;44.384;0.512;2024-03-02T14:52:13;98889.03;;;11.43
77789;BMP280;70537;44.384;0.512;2024-03-02T14:54:39;98881.53;;;11.36
77789;BMP280;70537;44.384;0.512;2024-03-02T14:57:05;98865.81;;;11.21
77789;BMP280;70537;44.384;0.512;2024-03-02T14:59:30;98864.88;;;11.18
77789;BMP280;70537;44.384;0.512;2024-03-02T15:01:56;98847.84;;;11.18
77789;BMP280;70537;44.384;0.512;2024-03-02T15:04:22;98827.00;;;11.13
77789;BMP280;70537;44.384;0.512;2024-03-02T15:06:48;98818.47;;;11.09
77789;BMP280;70537;44.384;0.512;2024-03-02T15:09:13;98806.25;;;11.02
77789;BMP280;70537;44.384;0.512;2024-03-02T15:11:39;98809.31;;;10.99
77789;BMP280;70537;44.384;0.512;2024-03-02T15:14:04;98809.25;;;10.91
77789;BMP280;70537;44.384;0.512;2024-03-02T15:16:30;98794.84;;;10.83
77789;BMP280;70537;44.384;0.512;2024-03-02T15:18:55;98781.59;;;10.79
77789;BMP280;70537;44.384;0.512;2024-03-02T15:21:21;98779.75;;;10.74
77789;BMP280;70537;44.384;0.512;2024-03-02T15:23:46;98779.88;;;10.68
77789;BMP280;70537;44.384;0.512;2024-03-02T15:26:12;98775.47;;;10.65
77789;BMP280;70537;44.384;0.512;2024-03-02T15:28:37;98777.06;;;10.61
77789;BMP280;70537;44.384;0.512;2024-03-02T15:31:03;98784.97;;;10.59
77789;BMP280;70537;44.384;0.512;2024-03-02T15:33:29;98770.09;;;10.52
77789;BMP280;70537;44.384;0.512;2024-03-02T15:35:58;98763.84;;;10.31
77789;BMP280;70537;44.384;0.512;2024-03-02T15:38:26;98778.34;;;10.20
77789;BMP280;70537;44.384;0.512;2024-03-02T15:40:51;98792.44;;;10.05
77789;BMP280;70537;44.384;0.512;2024-03-02T15:43:17;98802.41;;;9.97
77789;BMP280;70537;44.384;0.512;2024-03-02T15:45:42;98812.91;;;9.87
77789;BMP280;70537;44.384;0.512;2024-03-02T15:48:08;98798.03;;;9.80
77789;BMP280;70537;44.384;0.512;2024-03-02T15:50:33;98794.25;;;9.70
77789;BMP280;70537;44.384;0.512;2024-03-02T15:53:01;98792.78;;;9.69
77789;BMP280;70537;44.384;0.512;2024-03-02T15:55:29;98788.94;;;9.65
77789;BMP280;70537;44.384;0.512;2024-03-02T15:57:55;98770.38;;;9.55
77789;BMP280;70537;44.384;0.512;2024-03-02T16:00:23;98754.44;;;9.52
77789;BMP280;70537;44.384;0.512;2024-03-02T16:02:48;98745.69;;;9.46
77789;BMP280;70537;44.384;0.512;2024-03-02T16:05:15;98737.56;;;9.46
77789;BMP280;70537;44.384;0.512;2024-03-02T16:07:42;98729.44;;;9.46
77789;BMP280;70537;44.384;0.512;2024-03-02T16:10:09;98717.22;;;9.39
77789;BMP280;70537;44.384;0.512;2024-03-02T16:12:34;98715.56;;;9.36
77789;BMP280;70537;44.384;0.512;2024-03-02T16:15:00;98698.59;;;9.35
77789;BMP280;70537;44.384;0.512;2024-03-02T16:17:26;98692.94;;;9.33
77789;BMP280;70537;44.384;0.512;2024-03-02T16:19:51;98673.78;;;9.31
77789;BMP280;70537;44.384;0.512;2024-03-02T16:22:17;98671.81;;;9.32
77789;BMP280;70537;44.384;0.512;2024-03-02T16:24:42;98660.88;;;9.24
77789;BMP280;70537;44.384;0.512;2024-03-02T16:27:08;98654.00;;;9.23
77789;BMP280;70537;44.384;0.512;2024-03-02T16:29:34;98663.97;;;9.15
77789;BMP280;70537;44.384;0.512;2024-03-02T16:31:59;98662.75;;;9.16
77789;BMP280;70537;44.384;0.512;2024-03-02T16:34:28;98678.34;;;9.10
77789;BMP280;70537;44.384;0.512;2024-03-02T16:36:54;98682.13;;;9.01
77789;BMP280;70537;44.384;0.512;2024-03-02T16:39:20;98685.38;;;9.00
77789;BMP280;70537;44.384;0.512;2024-03-02T16:41:47;98683.75;;;8.91
77789;BMP280;70537;44.384;0.512;2024-03-02T16:44:13;98687.19;;;8.91
77789;BMP280;70537;44.384;0.512;2024-03-02T16:46:39;98668.06;;;8.89
77789;BMP280;70537;44.384;0.512;2024-03-02T16:49:06;98670.91;;;8.97
77789;BMP280;70537;44.384;0.512;2024-03-02T16:51:39;98663.94;;;9.02
77789;BMP280;70537;44.384;0.512;2024-03-02T16:54:05;98701.31;;;9.03
77789;BMP280;70537;44.384;0.512;2024-03-02T16:56:51;98713.22;;;9.13
77789;BMP280;70537;44.384;0.512;2024-03-02T16:59:16;98722.28;;;9.16
77789;BMP280;70537;44.384;0.512;2024-03-02T17:01:42;98733.09;;;9.16
77789;BMP280;70537;44.384;0.512;2024-03-02T17:04:07;98735.06;;;9.15
77789;BMP280;70537;44.384;0.512;2024-03-02T17:06:33;98725.97;;;9.13
77789;BMP280;70537;44.384;0.512;2024-03-02T17:08:58;98719.06;;;9.18
77789;BMP280;70537;44.384;0.512;2024-03-02T17:11:24;98738.91;;;9.20
77789;BMP280;70537;44.384;0.512;2024-03-02T17:13:49;98717.28;;;9.20
77789;BMP280;70537;44.384;0.512;2024-03-02T17:16:17;98721.94;;;9.20
77789;BMP280;70537;44.384;0.512;2024-03-02T17:18:43;98723.63;;;9.09
77789;BMP280;70537;44.384;0.512;2024-03-02T17:21:09;98737.16;;;9.09
77789;BMP280;70537;44.384;0.512;2024-03-02T17:23:35;98730.41;;;8.97
77789;BMP280;70537;44.384;0.512;2024-03-02T17:26:01;98738.09;;;8.93
77789;BMP280;70537;44.384;0.512;2024-03-02T17:28:27;98725.69;;;8.84
77789;BMP280;70537;44.384;0.512;2024-03-02T17:30:54;98731.44;;;8.75
77789;BMP280;70537;44.384;0.512;2024-03-02T17:33:20;98742.47;;;8.77
77789;BMP280;70537;44.384;0.512;2024-03-02T17:35:45;98737.59;;;8.57
77789;BMP280;70537;44.384;0.512;2024-03-02T17:38:13;98749.72;;;8.50
77789;BMP280;70537;44.384;0.512;2024-03-02T17:40:40;98752.09;;;8.35
77789;BMP280;70537;44.384;0.512;2024-03-02T17:43:07;98757.63;;;8.23
77789;BMP280;70537;44.384;0.512;2024-03-02T17:45:32;98766.81;;;8.15
77789;BMP280;70537;44.384;0.512;2024-03-02T17:47:58;98778.59;;;8.12
77789;BMP280;70537;44.384;0.512;2024-03-02T17:50:23;98788.47;;;8.09
77789;BMP280;70537;44.384;0.512;2024-03-02T17:52:49;98806.66;;;8.09
77789;BMP280;70537;44.384;0.512;2024-03-02T17:55:14;98799.75;;;8.08
77789;BMP280;70537;44.384;0.512;2024-03-02T17:57:40;98800.56;;;8.02
77789;BMP280;70537;44.384;0.512;2024-03-02T18:00:06;98788.31;;;8.01
77789;BMP280;70537;44.384;0.512;2024-03-02T18:02:31;98778.09;;;7.89
77789;BMP280;70537;44.384;0.512;2024-03-02T18:05:03;98784.97;;;7.90
77789;BMP280;70537;44.384;0.512;2024-03-02T18:07:29;98781.38;;;7.76
77789;BMP280;70537;44.384;0.512;2024-03-02T18:09:55;98787.00;;;7.78
77789;BMP280;70537;44.384;0.512;2024-03-02T18:12:26;98791.94;;;7.79
77789;BMP280;70537;44.384;0.512;2024-03-02T18:14:51;98773.16;;;7.63
77789;BMP280;70537;44.384;0.512;2024-03-02T18:17:17;98796.19;;;7.69
77789;BMP280;70537;44.384;0.512;2024-03-02T18:19:44;98812.56;;;7.77
77789;BMP280;70537;44.384;0.512;2024-03-02T18:22:10;98803.28;;;7.72
77789;BMP280;70537;44.384;0.512;2024-03-02T18:24:36;98815.25;;;7.77
77789;BMP280;70537;44.384;0.512;2024-03-02T18:27:01;98811.56;;;7.80
77789;BMP280;70537;44.384;0.512;2024-03-02T18:29:27;98813.56;;;7.74
77789;BMP280;70537;44.384;0.512;2024-03-02T18:31:52;98817.97;;;7.77
77789;BMP280;70537;44.384;0.512;2024-03-02T18:34:19;98825.72;;;7.86
77789;BMP280;70537;44.384;0.512;2024-03-02T18:36:45;98824.75;;;7.89
77789;BMP280;70537;44.384;0.512;2024-03-02T18:39:10;98826.94;;;7.91
77789;BMP280;70537;44.384;0.512;2024-03-02T18:41:36;98835.22;;;7.98
77789;BMP280;70537;44.384;0.512;2024-03-02T18:44:01;98837.00;;;7.90
77789;BMP280;70537;44.384;0.512;2024-03-02T18:46:28;98838.50;;;7.91
77789;BMP280;70537;44.384;0.512;2024-03-02T18:48:54;98837.25;;;7.92
77789;BMP280;70537;44.384;0.512;2024-03-02T18:51:21;98839.22;;;7.92
77789;BMP280;70537;44.384;0.512;2024-03-02T18:53:51;98843.88;;;7.91
77789;BMP280;70537;44.384;0.512;2024-03-02T18:56:16;98840.97;;;7.89
77789;BMP280;70537;44.384;0.512;2024-03-02T18:58:42;98845.84;;;7.91
77789;BMP280;70537;44.384;0.512;2024-03-02T19:01:08;98840.00;;;7.87
77789;BMP280;70537;44.384;0.512;2024-03-02T19:03:34;98841.94;;;7.86
77789;BMP280;70537;44.384;0.512;2024-03-02T19:06:00;98848.53;;;7.91
77789;BMP280;70537;44.384;0.512;2024-03-02T19:08:29;98868.69;;;7.90
77789;BMP280;70537;44.384;0.512;2024-03-02T19:10:55;98857.41;;;7.91
77789;BMP280;70537;44.384;0.512;2024-03-02T19:13:21;98853.22;;;7.90
77789;BMP280;70537;44.384;0.512;2024-03-02T19:15:49;98861.78;;;7.94
77789;BMP280;70537;44.384;0.512;2024-03-02T19:18:14;98851.75;;;7.89
77789;BMP280;70537;44.384;0.512;2024-03-02T19:20:40;98865.75;;;7.88
77789;BMP280;70537;44.384;0.512;2024-03-02T19:23:06;98865.03;;;7.87
77789;BMP280;70537;44.384;0.512;2024-03-02T19:25:32;98867.00;;;7.87
77789;BMP280;70537;44.384;0.512;2024-03-02T19:27:58;98854.94;;;7.88
77789;BMP280;70537;44.384;0.512;2024-03-02T19:30:23;98858.38;;;7.88
77789;BMP280;70537;44.384;0.512;2024-03-02T19:32:50;98859.41;;;7.85
77789;BMP280;70537;44.384;0.512;2024-03-02T19:35:16;98860.41;;;7.82
77789;BMP280;70537;44.384;0.512;2024-03-02T19:37:41;98882.00;;;7.82
77789;BMP280;70537;44.384;0.512;2024-03-02T19:40:07;98878.56;;;7.81
77789;BMP280;70537;44.384;0.512;2024-03-02T19:42:33;98886.69;;;7.81
77789;BMP280;70537;44.384;0.512;2024-03-02T19:45:02;98891.59;;;7.77
77789;BMP280;70537;44.384;0.512;2024-03-02T19:47:31;98888.44;;;7.73
77789;BMP280;70537;44.384;0.512;2024-03-02T19:50:00;98885.22;;;7.75
77789;BMP280;70537;44.384;0.512;2024-03-02T19:52:25;98894.84;;;7.70
77789;BMP280;70537;44.384;0.512;2024-03-02T19:54:52;98896.06;;;7.69
77789;BMP280;70537;44.384;0.512;2024-03-02T19:57:18;98900.00;;;7.68
77789;BMP280;70537;44.384;0.512;2024-03-02T19:59:43;98898.06;;;7.63
77789;BMP280;70537;44.384;0.512;2024-03-02T20:02:09;98908.38;;;7.65
77789;BMP280;70537;44.384;0.512;2024-03-02T20:04:37;98901.00;;;7.65
77789;BMP280;70537;44.384;0.512;2024-03-02T20:07:04;98908.38;;;7.65
77789;BMP280;70537;44.384;0.512;2024-03-02T20:09:29;98907.91;;;7.60
77789;BMP280;70537;44.384;0.512;2024-03-02T20:11:55;98910.63;;;7.60
77789;BMP280;70537;44.384;0.512;2024-03-02T20:14:24;98926.09;;;7.60
77789;BMP280;70537;44.384;0.512;2024-03-02T20:16:50;98927.03;;;7.63
77789;BMP280;70537;44.384;0.512;2024-03-02T20:19:16;98948.91;;;7.59
77789;BMP280;70537;44.384;0.512;2024-03-02T20:21:44;98947.69;;;7.54
77789;BMP280;70537;44.384;0.512;2024-03-02T20:24:10;98946.00;;;7.51
77789;BMP280;70537;44.384;0.512;2024-03-02T20:26:47;98964.59;;;7.55
77789;BMP280;70537;44.384;0.512;2024-03-02T20:29:20;98947.22;;;7.50
77789;BMP280;70537;44.384;0.512;2024-03-02T20:31:50;98964.88;;;7.51
77789;BMP280;70537;44.384;0.512;2024-03-02T20:34:16;98977.88;;;7.53
77789;BMP280;70537;44.384;0.512;2024-03-02T20:36:43;98976.19;;;7.50
77789;BMP280;70537;44.384;0.512;2024-03-02T20:39:09;98979.88;;;7.47
77789;BMP280;70537;44.384;0.512;2024-03-02T20:41:35;98980.88;;;7.49
77789;BMP280;70537;44.384;0.512;2024-03-02T20:44:04;98984.03;;;7.48
77789;BMP280;70537;44.384;0.512;2024-03-02T20:46:29;98979.41;;;7.43
77789;BMP280;70537;44.384;0.512;2024-03-02T20:48:55;98981.81;;;7.46
77789;BMP280;70537;44.384;0.512;2024-03-02T20:51:22;98978.66;;;7.42
77789;BMP280;70537;44.384;0.512;2024-03-02T20:53:49;98996.09;;;7.41
77789;BMP280;70537;44.384;0.512;2024-03-02T20:56:15;99005.16;;;7.44
77789;BMP280;70537;44.384;0.512;2024-03-02T20:58:40;99001.00;;;7.37
77789;BMP280;70537;44.384;0.512;2024-03-02T21:01:06;99001.22;;;7.39
77789;BMP280;70537;44.384;0.512;2024-03-02T21:03:31;99014.50;;;7.37
77789;BMP280;70537;44.384;0.512;2024-03-02T21:05:58;99021.59;;;7.40
77789;BMP280;70537;44.384;0.512;2024-03-02T21:08:27;99020.38;;;7.35
77789;BMP280;70537;44.384;0.512;2024-03-02T21:10:52;99022.81;;;7.39
77789;BMP280;70537;44.384;0.512;2024-03-02T21:13:18;99033.88;;;7.41
77789;BMP280;70537;44.384;0.512;2024-03-02T21:15:43;99036.31;;;7.39
77789;BMP280;70537;44.384;0.512;2024-03-02T21:18:09;99027.75;;;7.35
77789;BMP280;70537;44.384;0.512;2024-03-02T21:20:34;99033.41;;;7.37